sensor_id;sensor_type;location;lat;lon;timestamp;temperature;humidity
21335;DHT22;69435;52.670;13.544;2023-10-09T00:02:28;13.10;56.00
21335;DHT22;69435;52.670;13.544;2023-10-09T00:05:15;13.10;55.80
21335;DHT22;69435;52.670;13.544;2023-10-09T00:08:14;13.10;55.80
21335;DHT22;69435;52.670;13.544;2023-10-09T00:11:07;13.00;56.30
21335;DHT22;69435;52.670;13.544;2023-10-09T00:14:02;13.00;56.90
21335;DHT22;69435;52.670;13.544;2023-10-09T00:16:51;13.00;57.00
21335;DHT22;69435;52.670;13.544;2023-10-09T00:19:47;12.90;57.60
21335;DHT22;69435;52.670;13.544;2023-10-09T00:22:36;12.90;58.30
21335;DHT22;69435;52.670;13.544;2023-10-09T00:25:29;12.80;58.90
21335;DHT22;69435;52.670;13.544;2023-10-09T00:28:15;12.80;59.20
21335;DHT22;69435;52.670;13.544;2023-10-09T00:31:04;12.70;59.50
21335;DHT22;69435;52.670;13.544;2023-10-09T00:33:53;12.70;59.90
21335;DHT22;69435;52.670;13.544;2023-10-09T00:36:41;12.60;60.20
21335;DHT22;69435;52.670;13.544;2023-10-09T00:39:35;12.60;60.50
21335;DHT22;69435;52.670;13.544;2023-10-09T00:42:23;12.50;61.00
21335;DHT22;69435;52.670;13.544;2023-10-09T00:45:18;12.50;61.40
21335;DHT22;69435;52.670;13.544;2023-10-09T00:48:11;12.50;61.90
21335;DHT22;69435;52.670;13.544;2023-10-09T00:51:00;12.40;62.10
21335;DHT22;69435;52.670;13.544;2023-10-09T00:53:48;12.40;62.30
21335;DHT22;69435;52.670;13.544;2023-10-09T00:56:39;12.40;62.60
21335;DHT22;69435;52.670;13.544;2023-10-09T00:59:29;12.40;62.80
21335;DHT22;69435;52.670;13.544;2023-10-09T01:02:16;12.40;63.10
21335;DHT22;69435;52.670;13.544;2023-10-09T01:05:05;12.40;63.40
21335;DHT22;69435;52.670;13.544;2023-10-09T01:07:57;12.30;63.50
21335;DHT22;69435;52.670;13.544;2023-10-09T01:10:45;12.40;63.80
21335;DHT22;69435;52.670;13.544;2023-10-09T01:13:38;12.40;64.00
21335;DHT22;69435;52.670;13.544;2023-10-09T01:16:38;12.30;64.50
21335;DHT22;69435;52.670;13.544;2023-10-09T01:19:28;12.30;64.50
21335;DHT22;69435;52.670;13.544;2023-10-09T01:22:16;12.30;64.60
21335;DHT22;69435;52.670;13.544;2023-10-09T01:25:07;12.30;64.80
21335;DHT22;69435;52.670;13.544;2023-10-09T01:27:53;12.30;65.00
21335;DHT22;69435;52.670;13.544;2023-10-09T01:30:39;12.30;64.90
21335;DHT22;69435;52.670;13.544;2023-10-09T01:33:27;12.30;64.90
21335;DHT22;69435;52.670;13.544;2023-10-09T01:36:14;12.30;64.80
21335;DHT22;69435;52.670;13.544;2023-10-09T01:39:01;12.30;65.00
21335;DHT22;69435;52.670;13.544;2023-10-09T01:42:07;12.30;65.20
21335;DHT22;69435;52.670;13.544;2023-10-09T01:44:53;12.20;65.20
21335;DHT22;69435;52.670;13.544;2023-10-09T01:47:39;12.20;65.40
21335;DHT22;69435;52.670;13.544;2023-10-09T01:50:25;12.20;65.60
21335;DHT22;69435;52.670;13.544;2023-10-09T01:53:16;12.20;65.70
21335;DHT22;69435;52.670;13.544;2023-10-09T01:56:11;12.20;65.80
21335;DHT22;69435;52.670;13.544;2023-10-09T01:59:03;12.20;65.90
21335;DHT22;69435;52.670;13.544;2023-10-09T02:01:51;12.10;65.90
21335;DHT22;69435;52.670;13.544;2023-10-09T02:04:40;12.10;65.90
21335;DHT22;69435;52.670;13.544;2023-10-09T02:07:26;12.10;65.90
21335;DHT22;69435;52.670;13.544;2023-10-09T02:10:25;12.10;65.90
21335;DHT22;69435;52.670;13.544;2023-10-09T02:13:17;12.10;66.00
21335;DHT22;69435;52.670;13.544;2023-10-09T02:16:03;12.20;66.10
21335;DHT22;69435;52.670;13.544;2023-10-09T02:19:02;12.20;66.10
21335;DHT22;69435;52.670;13.544;2023-10-09T02:21:53;12.20;66.40
21335;DHT22;69435;52.670;13.544;2023-10-09T02:24:44;12.20;66.40
21335;DHT22;69435;52.670;13.544;2023-10-09T02:27:34;12.20;66.50
21335;DHT22;69435;52.670;13.544;2023-10-09T02:30:30;12.20;66.60
21335;DHT22;69435;52.670;13.544;2023-10-09T02:33:20;12.20;66.80
21335;DHT22;69435;52.670;13.544;2023-10-09T02:36:13;12.20;66.90
21335;DHT22;69435;52.670;13.544;2023-10-09T02:38:59;12.20;66.90
21335;DHT22;69435;52.670;13.544;2023-10-09T02:41:45;12.20;67.00
21335;DHT22;69435;52.670;13.544;2023-10-09T02:44:35;12.20;67.00
21335;DHT22;69435;52.670;13.544;2023-10-09T02:47:26;12.20;66.90
21335;DHT22;69435;52.670;13.544;2023-10-09T02:50:17;12.20;66.80
21335;DHT22;69435;52.670;13.544;2023-10-09T02:53:06;12.20;66.90
21335;DHT22;69435;52.670;13.544;2023-10-09T02:55:55;12.20;67.10
21335;DHT22;69435;52.670;13.544;2023-10-09T02:59:08;12.20;67.20
21335;DHT22;69435;52.670;13.544;2023-10-09T03:01:54;12.20;67.40
21335;DHT22;69435;52.670;13.544;2023-10-09T03:04:40;12.20;67.50
21335;DHT22;69435;52.670;13.544;2023-10-09T03:07:27;12.20;67.50
21335;DHT22;69435;52.670;13.544;2023-10-09T03:10:13;12.20;67.40
21335;DHT22;69435;52.670;13.544;2023-10-09T03:12:59;12.10;67.30
21335;DHT22;69435;52.670;13.544;2023-10-09T03:15:48;12.10;67.40
21335;DHT22;69435;52.670;13.544;2023-10-09T03:18:37;12.10;67.50
21335;DHT22;69435;52.670;13.544;2023-10-09T03:21:23;12.10;67.60
21335;DHT22;69435;52.670;13.544;2023-10-09T03:24:09;12.10;67.80
21335;DHT22;69435;52.670;13.544;2023-10-09T03:26:57;12.10;67.80
21335;DHT22;69435;52.670;13.544;2023-10-09T03:29:43;12.00;67.80
21335;DHT22;69435;52.670;13.544;2023-10-09T03:32:35;12.00;67.90
21335;DHT22;69435;52.670;13.544;2023-10-09T03:35:22;12.10;68.10
21335;DHT22;69435;52.670;13.544;2023-10-09T03:38:13;12.00;68.00
21335;DHT22;69435;52.670;13.544;2023-10-09T03:41:03;12.00;68.10
21335;DHT22;69435;52.670;13.544;2023-10-09T03:43:53;12.00;68.20
21335;DHT22;69435;52.670;13.544;2023-10-09T03:46:40;12.00;68.30
21335;DHT22;69435;52.670;13.544;2023-10-09T03:49:30;12.00;68.40
21335;DHT22;69435;52.670;13.544;2023-10-09T03:52:17;12.00;68.60
21335;DHT22;69435;52.670;13.544;2023-10-09T03:55:05;11.90;68.80
21335;DHT22;69435;52.670;13.544;2023-10-09T03:57:56;12.00;68.80
21335;DHT22;69435;52.670;13.544;2023-10-09T04:00:45;11.90;68.90
21335;DHT22;69435;52.670;13.544;2023-10-09T04:03:30;12.00;68.90
21335;DHT22;69435;52.670;13.544;2023-10-09T04:06:16;12.00;68.80
21335;DHT22;69435;52.670;13.544;2023-10-09T04:09:04;12.10;68.90
21335;DHT22;69435;52.670;13.544;2023-10-09T04:12:04;12.10;69.00
21335;DHT22;69435;52.670;13.544;2023-10-09T04:14:56;12.10;69.10
21335;DHT22;69435;52.670;13.544;2023-10-09T04:17:49;12.10;69.10
21335;DHT22;69435;52.670;13.544;2023-10-09T04:20:37;12.20;69.10
21335;DHT22;69435;52.670;13.544;2023-10-09T04:23:42;12.20;69.80
21335;DHT22;69435;52.670;13.544;2023-10-09T04:26:54;12.10;69.20
21335;DHT22;69435;52.670;13.544;2023-10-09T04:29:43;12.10;69.30
21335;DHT22;69435;52.670;13.544;2023-10-09T04:32:33;12.10;69.30
21335;DHT22;69435;52.670;13.544;2023-10-09T04:35:20;12.10;69.40
21335;DHT22;69435;52.670;13.544;2023-10-09T04:38:09;12.10;69.40
21335;DHT22;69435;52.670;13.544;2023-10-09T04:40:56;12.10;69.40
21335;DHT22;69435;52.670;13.544;2023-10-09T04:43:45;12.10;69.40
21335;DHT22;69435;52.670;13.544;2023-10-09T04:46:32;12.10;69.50
21335;DHT22;69435;52.670;13.544;2023-10-09T04:49:29;12.10;69.50
21335;DHT22;69435;52.670;13.544;2023-10-09T04:52:16;12.10;69.50
21335;DHT22;69435;52.670;13.544;2023-10-09T04:55:25;12.10;69.60
21335;DHT22;69435;52.670;13.544;2023-10-09T04:58:11;12.10;69.50
21335;DHT22;69435;52.670;13.544;2023-10-09T05:01:09;12.20;69.50
21335;DHT22;69435;52.670;13.544;2023-10-09T05:03:59;12.10;69.50
21335;DHT22;69435;52.670;13.544;2023-10-09T05:06:49;12.20;70.40
21335;DHT22;69435;52.670;13.544;2023-10-09T05:09:40;12.10;69.70
21335;DHT22;69435;52.670;13.544;2023-10-09T05:12:41;12.10;69.70
21335;DHT22;69435;52.670;13.544;2023-10-09T05:15:33;12.20;69.70
21335;DHT22;69435;52.670;13.544;2023-10-09T05:18:20;12.10;69.70
21335;DHT22;69435;52.670;13.544;2023-10-09T05:21:13;12.10;69.70
21335;DHT22;69435;52.670;13.544;2023-10-09T05:24:03;12.10;69.70
21335;DHT22;69435;52.670;13.544;2023-10-09T05:26:59;12.10;69.70
21335;DHT22;69435;52.670;13.544;2023-10-09T05:30:04;12.10;69.80
21335;DHT22;69435;52.670;13.544;2023-10-09T05:33:08;12.00;69.70
21335;DHT22;69435;52.670;13.544;2023-10-09T05:36:17;12.10;70.00
21335;DHT22;69435;52.670;13.544;2023-10-09T05:39:06;12.10;69.90
21335;DHT22;69435;52.670;13.544;2023-10-09T05:42:07;12.00;70.00
21335;DHT22;69435;52.670;13.544;2023-10-09T05:45:10;12.00;70.00
21335;DHT22;69435;52.670;13.544;2023-10-09T05:48:02;12.00;70.00
21335;DHT22;69435;52.670;13.544;2023-10-09T05:50:49;12.00;70.20
21335;DHT22;69435;52.670;13.544;2023-10-09T05:53:57;12.00;70.20
21335;DHT22;69435;52.670;13.544;2023-10-09T05:57:09;12.00;70.40
21335;DHT22;69435;52.670;13.544;2023-10-09T06:00:14;12.00;70.20
21335;DHT22;69435;52.670;13.544;2023-10-09T06:03:19;12.10;70.40
21335;DHT22;69435;52.670;13.544;2023-10-09T06:06:05;12.10;70.40
21335;DHT22;69435;52.670;13.544;2023-10-09T06:08:52;12.10;70.40
21335;DHT22;69435;52.670;13.544;2023-10-09T06:11:56;12.20;70.40
21335;DHT22;69435;52.670;13.544;2023-10-09T06:15:02;12.20;70.50
21335;DHT22;69435;52.670;13.544;2023-10-09T06:18:24;12.20;70.40
21335;DHT22;69435;52.670;13.544;2023-10-09T06:21:18;12.20;70.40
21335;DHT22;69435;52.670;13.544;2023-10-09T06:24:27;12.30;70.30
21335;DHT22;69435;52.670;13.544;2023-10-09T06:27:19;12.30;71.10
21335;DHT22;69435;52.670;13.544;2023-10-09T06:30:34;12.40;70.20
21335;DHT22;69435;52.670;13.544;2023-10-09T06:33:21;12.50;70.20
21335;DHT22;69435;52.670;13.544;2023-10-09T06:36:15;12.50;70.00
21335;DHT22;69435;52.670;13.544;2023-10-09T06:39:03;12.50;70.10
21335;DHT22;69435;52.670;13.544;2023-10-09T06:42:08;12.50;70.20
21335;DHT22;69435;52.670;13.544;2023-10-09T06:45:16;12.60;70.20
21335;DHT22;69435;52.670;13.544;2023-10-09T06:48:03;12.70;70.00
21335;DHT22;69435;52.670;13.544;2023-10-09T06:51:09;12.70;69.80
21335;DHT22;69435;52.670;13.544;2023-10-09T06:54:11;12.80;69.60
21335;DHT22;69435;52.670;13.544;2023-10-09T06:57:01;12.80;69.50
21335;DHT22;69435;52.670;13.544;2023-10-09T06:59:58;12.90;69.50
21335;DHT22;69435;52.670;13.544;2023-10-09T07:03:03;12.80;69.50
21335;DHT22;69435;52.670;13.544;2023-10-09T07:06:09;12.90;69.60
21335;DHT22;69435;52.670;13.544;2023-10-09T07:09:09;12.90;69.50
21335;DHT22;69435;52.670;13.544;2023-10-09T07:11:55;12.90;69.50
21335;DHT22;69435;52.670;13.544;2023-10-09T07:14:45;13.00;69.50
21335;DHT22;69435;52.670;13.544;2023-10-09T07:17:32;13.10;69.50
21335;DHT22;69435;52.670;13.544;2023-10-09T07:20:20;13.20;69.10
21335;DHT22;69435;52.670;13.544;2023-10-09T07:23:25;13.20;69.10
21335;DHT22;69435;52.670;13.544;2023-10-09T07:26:18;13.30;69.20
21335;DHT22;69435;52.670;13.544;2023-10-09T07:29:04;13.30;69.00
21335;DHT22;69435;52.670;13.544;2023-10-09T07:32:07;13.40;68.20
21335;DHT22;69435;52.670;13.544;2023-10-09T07:34:58;13.30;68.00
21335;DHT22;69435;52.670;13.544;2023-10-09T07:37:44;13.20;67.90
21335;DHT22;69435;52.670;13.544;2023-10-09T07:40:40;13.20;68.20
21335;DHT22;69435;52.670;13.544;2023-10-09T07:43:45;13.20;68.50
21335;DHT22;69435;52.670;13.544;2023-10-09T07:46:31;13.20;68.50
21335;DHT22;69435;52.670;13.544;2023-10-09T07:49:37;13.30;68.40
21335;DHT22;69435;52.670;13.544;2023-10-09T07:52:23;13.30;68.40
21335;DHT22;69435;52.670;13.544;2023-10-09T07:55:11;13.30;68.20
21335;DHT22;69435;52.670;13.544;2023-10-09T07:58:12;13.40;67.80
21335;DHT22;69435;52.670;13.544;2023-10-09T08:00:58;13.40;67.80
21335;DHT22;69435;52.670;13.544;2023-10-09T08:04:07;13.40;68.00
21335;DHT22;69435;52.670;13.544;2023-10-09T08:07:09;13.40;67.60
21335;DHT22;69435;52.670;13.544;2023-10-09T08:10:05;13.40;67.20
21335;DHT22;69435;52.670;13.544;2023-10-09T08:13:04;13.40;67.30
21335;DHT22;69435;52.670;13.544;2023-10-09T08:16:26;13.40;67.30
21335;DHT22;69435;52.670;13.544;2023-10-09T08:19:21;13.50;67.40
21335;DHT22;69435;52.670;13.544;2023-10-09T08:22:30;13.50;67.20
21335;DHT22;69435;52.670;13.544;2023-10-09T08:25:16;13.60;67.00
21335;DHT22;69435;52.670;13.544;2023-10-09T08:28:18;13.60;67.00
21335;DHT22;69435;52.670;13.544;2023-10-09T08:31:23;13.60;66.50
21335;DHT22;69435;52.670;13.544;2023-10-09T08:34:30;13.60;66.50
21335;DHT22;69435;52.670;13.544;2023-10-09T08:37:34;13.60;66.50
21335;DHT22;69435;52.670;13.544;2023-10-09T08:40:20;13.60;66.60
21335;DHT22;69435;52.670;13.544;2023-10-09T08:43:14;13.70;66.30
21335;DHT22;69435;52.670;13.544;2023-10-09T08:46:05;13.70;66.10
21335;DHT22;69435;52.670;13.544;2023-10-09T08:48:51;13.70;66.10
21335;DHT22;69435;52.670;13.544;2023-10-09T08:51:37;13.80;66.10
21335;DHT22;69435;52.670;13.544;2023-10-09T08:54:23;13.80;65.80
21335;DHT22;69435;52.670;13.544;2023-10-09T08:57:09;13.80;65.70
21335;DHT22;69435;52.670;13.544;2023-10-09T08:59:55;13.90;65.80
21335;DHT22;69435;52.670;13.544;2023-10-09T09:02:42;13.90;65.70
21335;DHT22;69435;52.670;13.544;2023-10-09T09:05:29;13.90;65.20
21335;DHT22;69435;52.670;13.544;2023-10-09T09:08:23;13.90;65.20
21335;DHT22;69435;52.670;13.544;2023-10-09T09:11:16;14.00;65.30
21335;DHT22;69435;52.670;13.544;2023-10-09T09:14:04;14.10;65.40
21335;DHT22;69435;52.670;13.544;2023-10-09T09:16:51;14.20;65.40
21335;DHT22;69435;52.670;13.544;2023-10-09T09:19:37;14.20;65.10
21335;DHT22;69435;52.670;13.544;2023-10-09T09:22:23;14.20;65.10
21335;DHT22;69435;52.670;13.544;2023-10-09T09:25:12;14.20;65.20
21335;DHT22;69435;52.670;13.544;2023-10-09T09:27:58;14.20;64.80
21335;DHT22;69435;52.670;13.544;2023-10-09T09:31:07;14.20;64.50
21335;DHT22;69435;52.670;13.544;2023-10-09T09:33:59;14.20;64.70
21335;DHT22;69435;52.670;13.544;2023-10-09T09:36:50;14.20;64.70
21335;DHT22;69435;52.670;13.544;2023-10-09T09:39:41;14.20;64.50
21335;DHT22;69435;52.670;13.544;2023-10-09T09:42:29;14.20;64.50
21335;DHT22;69435;52.670;13.544;2023-10-09T09:45:18;14.20;64.20
21335;DHT22;69435;52.670;13.544;2023-10-09T09:48:09;14.10;64.20
21335;DHT22;69435;52.670;13.544;2023-10-09T09:50:56;14.10;64.50
21335;DHT22;69435;52.670;13.544;2023-10-09T09:53:42;14.10;64.70
21335;DHT22;69435;52.670;13.544;2023-10-09T09:56:36;14.00;64.70
21335;DHT22;69435;52.670;13.544;2023-10-09T09:59:26;14.00;64.70
21335;DHT22;69435;52.670;13.544;2023-10-09T10:02:38;14.10;64.90
21335;DHT22;69435;52.670;13.544;2023-10-09T10:05:25;14.10;64.80
21335;DHT22;69435;52.670;13.544;2023-10-09T10:08:17;14.20;64.90
21335;DHT22;69435;52.670;13.544;2023-10-09T10:11:06;14.30;64.80
21335;DHT22;69435;52.670;13.544;2023-10-09T10:13:59;14.40;64.10
21335;DHT22;69435;52.670;13.544;2023-10-09T10:17:07;14.40;64.50
21335;DHT22;69435;52.670;13.544;2023-10-09T10:20:07;14.60;64.30
21335;DHT22;69435;52.670;13.544;2023-10-09T10:23:19;14.60;64.50
21335;DHT22;69435;52.670;13.544;2023-10-09T10:26:21;14.90;64.60
21335;DHT22;69435;52.670;13.544;2023-10-09T10:29:17;15.10;63.50
21335;DHT22;69435;52.670;13.544;2023-10-09T10:32:12;15.20;62.70
21335;DHT22;69435;52.670;13.544;2023-10-09T10:34:58;15.30;62.40
21335;DHT22;69435;52.670;13.544;2023-10-09T10:37:52;15.40;62.20
21335;DHT22;69435;52.670;13.544;2023-10-09T10:40:46;15.40;61.40
21335;DHT22;69435;52.670;13.544;2023-10-09T10:43:32;15.50;61.30
21335;DHT22;69435;52.670;13.544;2023-10-09T10:46:33;15.50;60.50
21335;DHT22;69435;52.670;13.544;2023-10-09T10:49:23;15.50;60.20
21335;DHT22;69435;52.670;13.544;2023-10-09T10:52:20;15.50;60.60
21335;DHT22;69435;52.670;13.544;2023-10-09T10:55:09;15.60;60.70
21335;DHT22;69435;52.670;13.544;2023-10-09T10:58:19;15.60;60.70
21335;DHT22;69435;52.670;13.544;2023-10-09T11:01:21;15.70;60.80
21335;DHT22;69435;52.670;13.544;2023-10-09T11:04:12;15.80;60.10
21335;DHT22;69435;52.670;13.544;2023-10-09T11:07:00;15.80;59.70
21335;DHT22;69435;52.670;13.544;2023-10-09T11:10:10;15.80;59.30
21335;DHT22;69435;52.670;13.544;2023-10-09T11:13:01;15.70;59.80
21335;DHT22;69435;52.670;13.544;2023-10-09T11:16:07;15.70;59.80
21335;DHT22;69435;52.670;13.544;2023-10-09T11:19:00;15.80;60.50
21335;DHT22;69435;52.670;13.544;2023-10-09T11:21:59;15.90;59.60
21335;DHT22;69435;52.670;13.544;2023-10-09T11:24:52;15.90;58.20
21335;DHT22;69435;52.670;13.544;2023-10-09T11:27:56;15.90;58.50
21335;DHT22;69435;52.670;13.544;2023-10-09T11:30:42;15.90;58.70
21335;DHT22;69435;52.670;13.544;2023-10-09T11:33:46;16.00;58.70
21335;DHT22;69435;52.670;13.544;2023-10-09T11:36:34;16.10;58.80
21335;DHT22;69435;52.670;13.544;2023-10-09T11:39:25;16.20;59.00
21335;DHT22;69435;52.670;13.544;2023-10-09T11:42:18;16.30;59.00
21335;DHT22;69435;52.670;13.544;2023-10-09T11:45:26;16.40;58.50
21335;DHT22;69435;52.670;13.544;2023-10-09T11:48:17;16.60;57.70
21335;DHT22;69435;52.670;13.544;2023-10-09T11:51:27;16.70;57.10
21335;DHT22;69435;52.670;13.544;2023-10-09T11:54:29;16.70;56.70
21335;DHT22;69435;52.670;13.544;2023-10-09T11:57:17;16.80;55.80
21335;DHT22;69435;52.670;13.544;2023-10-09T12:00:04;16.70;55.80
21335;DHT22;69435;52.670;13.544;2023-10-09T12:03:09;16.60;56.30
21335;DHT22;69435;52.670;13.544;2023-10-09T12:06:00;16.60;57.00
21335;DHT22;69435;52.670;13.544;2023-10-09T12:08:57;16.60;56.90
21335;DHT22;69435;52.670;13.544;2023-10-09T12:11:44;16.70;56.70
21335;DHT22;69435;52.670;13.544;2023-10-09T12:14:38;16.80;56.90
21335;DHT22;69435;52.670;13.544;2023-10-09T12:17:25;16.80;56.90
21335;DHT22;69435;52.670;13.544;2023-10-09T12:20:12;16.90;56.40
21335;DHT22;69435;52.670;13.544;2023-10-09T12:23:15;16.90;56.60
21335;DHT22;69435;52.670;13.544;2023-10-09T12:26:03;16.90;55.70
21335;DHT22;69435;52.670;13.544;2023-10-09T12:28:49;16.90;56.00
21335;DHT22;69435;52.670;13.544;2023-10-09T12:31:35;16.90;57.60
21335;DHT22;69435;52.670;13.544;2023-10-09T12:34:22;17.00;55.90
21335;DHT22;69435;52.670;13.544;2023-10-09T12:37:11;17.10;56.00
21335;DHT22;69435;52.670;13.544;2023-10-09T12:39:58;17.20;55.70
21335;DHT22;69435;52.670;13.544;2023-10-09T12:42:44;17.30;53.60
21335;DHT22;69435;52.670;13.544;2023-10-09T12:45:33;17.30;52.80
21335;DHT22;69435;52.670;13.544;2023-10-09T12:48:20;17.30;52.90
21335;DHT22;69435;52.670;13.544;2023-10-09T12:51:06;17.20;53.00
21335;DHT22;69435;52.670;13.544;2023-10-09T12:53:52;17.20;52.60
21335;DHT22;69435;52.670;13.544;2023-10-09T12:56:44;17.10;53.00
21335;DHT22;69435;52.670;13.544;2023-10-09T12:59:34;17.00;53.00
21335;DHT22;69435;52.670;13.544;2023-10-09T13:02:21;16.90;53.60
21335;DHT22;69435;52.670;13.544;2023-10-09T13:05:16;16.80;54.10
21335;DHT22;69435;52.670;13.544;2023-10-09T13:08:11;16.70;53.10
21335;DHT22;69435;52.670;13.544;2023-10-09T13:11:02;16.50;53.20
21335;DHT22;69435;52.670;13.544;2023-10-09T13:14:02;16.40;53.80
21335;DHT22;69435;52.670;13.544;2023-10-09T13:16:57;16.20;54.60
21335;DHT22;69435;52.670;13.544;2023-10-09T13:19:43;16.10;55.40
21335;DHT22;69435;52.670;13.544;2023-10-09T13:22:29;16.00;55.60
21335;DHT22;69435;52.670;13.544;2023-10-09T13:25:16;15.90;56.00
21335;DHT22;69435;52.670;13.544;2023-10-09T13:28:02;15.90;56.40
21335;DHT22;69435;52.670;13.544;2023-10-09T13:30:48;15.90;56.80
21335;DHT22;69435;52.670;13.544;2023-10-09T13:33:36;16.00;57.00
21335;DHT22;69435;52.670;13.544;2023-10-09T13:36:23;16.00;57.20
21335;DHT22;69435;52.670;13.544;2023-10-09T13:39:17;16.10;57.00
21335;DHT22;69435;52.670;13.544;2023-10-09T13:42:12;16.20;56.60
21335;DHT22;69435;52.670;13.544;2023-10-09T13:44:58;16.20;56.80
21335;DHT22;69435;52.670;13.544;2023-10-09T13:47:50;16.30;56.60
21335;DHT22;69435;52.670;13.544;2023-10-09T13:50:36;16.40;56.30
21335;DHT22;69435;52.670;13.544;2023-10-09T13:53:28;16.50;55.50
21335;DHT22;69435;52.670;13.544;2023-10-09T13:56:17;16.50;55.70
21335;DHT22;69435;52.670;13.544;2023-10-09T13:59:04;16.60;56.10
21335;DHT22;69435;52.670;13.544;2023-10-09T14:01:56;16.50;56.30
21335;DHT22;69435;52.670;13.544;2023-10-09T14:04:43;16.60;56.10
21335;DHT22;69435;52.670;13.544;2023-10-09T14:07:29;16.60;55.80
21335;DHT22;69435;52.670;13.544;2023-10-09T14:10:15;16.70;56.10
21335;DHT22;69435;52.670;13.544;2023-10-09T14:13:09;16.70;55.70
21335;DHT22;69435;52.670;13.544;2023-10-09T14:15:58;16.70;55.80
21335;DHT22;69435;52.670;13.544;2023-10-09T14:18:47;16.60;55.50
21335;DHT22;69435;52.670;13.544;2023-10-09T14:21:33;16.50;55.60
21335;DHT22;69435;52.670;13.544;2023-10-09T14:24:23;16.40;55.20
21335;DHT22;69435;52.670;13.544;2023-10-09T14:27:18;16.30;55.30
21335;DHT22;69435;52.670;13.544;2023-10-09T14:30:04;16.30;55.80
21335;DHT22;69435;52.670;13.544;2023-10-09T14:32:59;16.20;56.00
21335;DHT22;69435;52.670;13.544;2023-10-09T14:35:47;16.10;56.20
21335;DHT22;69435;52.670;13.544;2023-10-09T14:38:34;16.00;56.50
21335;DHT22;69435;52.670;13.544;2023-10-09T14:41:23;15.90;56.90
21335;DHT22;69435;52.670;13.544;2023-10-09T14:44:11;15.90;57.30
21335;DHT22;69435;52.670;13.544;2023-10-09T14:47:02;15.80;57.30
21335;DHT22;69435;52.670;13.544;2023-10-09T14:49:51;15.80;57.40
21335;DHT22;69435;52.670;13.544;2023-10-09T14:52:40;15.80;57.80
21335;DHT22;69435;52.670;13.544;2023-10-09T14:55:26;15.70;57.80
21335;DHT22;69435;52.670;13.544;2023-10-09T14:58:17;15.70;58.10
21335;DHT22;69435;52.670;13.544;2023-10-09T15:01:10;15.70;58.10
21335;DHT22;69435;52.670;13.544;2023-10-09T15:03:59;15.70;58.10
21335;DHT22;69435;52.670;13.544;2023-10-09T15:06:49;15.60;58.20
21335;DHT22;69435;52.670;13.544;2023-10-09T15:09:36;15.60;58.60
21335;DHT22;69435;52.670;13.544;2023-10-09T15:12:22;15.60;58.30
21335;DHT22;69435;52.670;13.544;2023-10-09T15:15:09;15.50;58.20
21335;DHT22;69435;52.670;13.544;2023-10-09T15:17:59;15.40;58.30
21335;DHT22;69435;52.670;13.544;2023-10-09T15:20:46;15.40;58.50
21335;DHT22;69435;52.670;13.544;2023-10-09T15:23:33;15.30;58.90
21335;DHT22;69435;52.670;13.544;2023-10-09T15:26:22;15.20;58.90
21335;DHT22;69435;52.670;13.544;2023-10-09T15:29:10;15.30;59.20
21335;DHT22;69435;52.670;13.544;2023-10-09T15:31:57;15.30;59.40
21335;DHT22;69435;52.670;13.544;2023-10-09T15:34:55;15.20;59.50
21335;DHT22;69435;52.670;13.544;2023-10-09T15:37:42;15.20;59.50
21335;DHT22;69435;52.670;13.544;2023-10-09T15:40:32;15.20;59.90
21335;DHT22;69435;52.670;13.544;2023-10-09T15:43:22;15.10;59.90
21335;DHT22;69435;52.670;13.544;2023-10-09T15:46:12;15.10;59.90
21335;DHT22;69435;52.670;13.544;2023-10-09T15:49:00;15.10;60.10
21335;DHT22;69435;52.670;13.544;2023-10-09T15:51:46;15.00;60.20
21335;DHT22;69435;52.670;13.544;2023-10-09T15:54:32;15.00;60.40
21335;DHT22;69435;52.670;13.544;2023-10-09T15:57:18;14.90;60.60
21335;DHT22;69435;52.670;13.544;2023-10-09T16:00:06;14.90;61.70
21335;DHT22;69435;52.670;13.544;2023-10-09T16:02:59;14.80;61.10
21335;DHT22;69435;52.670;13.544;2023-10-09T16:05:46;14.80;61.20
21335;DHT22;69435;52.670;13.544;2023-10-09T16:08:32;14.80;61.20
21335;DHT22;69435;52.670;13.544;2023-10-09T16:11:19;14.80;61.40
21335;DHT22;69435;52.670;13.544;2023-10-09T16:14:09;14.80;61.30
21335;DHT22;69435;52.670;13.544;2023-10-09T16:16:55;14.70;61.50
21335;DHT22;69435;52.670;13.544;2023-10-09T16:19:41;14.70;61.60
21335;DHT22;69435;52.670;13.544;2023-10-09T16:22:30;14.70;61.80
21335;DHT22;69435;52.670;13.544;2023-10-09T16:25:16;14.70;61.80
21335;DHT22;69435;52.670;13.544;2023-10-09T16:28:06;14.60;61.70
21335;DHT22;69435;52.670;13.544;2023-10-09T16:30:52;14.60;61.60
21335;DHT22;69435;52.670;13.544;2023-10-09T16:33:39;14.60;61.50
21335;DHT22;69435;52.670;13.544;2023-10-09T16:36:26;14.50;61.70
21335;DHT22;69435;52.670;13.544;2023-10-09T16:39:12;14.50;61.70
21335;DHT22;69435;52.670;13.544;2023-10-09T16:42:04;14.60;61.90
21335;DHT22;69435;52.670;13.544;2023-10-09T16:44:50;14.50;61.90
21335;DHT22;69435;52.670;13.544;2023-10-09T16:47:36;14.50;62.60
21335;DHT22;69435;52.670;13.544;2023-10-09T16:50:24;14.60;62.10
21335;DHT22;69435;52.670;13.544;2023-10-09T16:53:13;14.50;62.10
21335;DHT22;69435;52.670;13.544;2023-10-09T16:56:06;14.50;62.10
21335;DHT22;69435;52.670;13.544;2023-10-09T16:58:55;14.50;62.20
21335;DHT22;69435;52.670;13.544;2023-10-09T17:01:42;14.40;62.40
21335;DHT22;69435;52.670;13.544;2023-10-09T17:04:30;14.50;62.70
21335;DHT22;69435;52.670;13.544;2023-10-09T17:07:18;14.50;62.90
21335;DHT22;69435;52.670;13.544;2023-10-09T17:10:06;14.50;63.70
21335;DHT22;69435;52.670;13.544;2023-10-09T17:13:00;14.40;62.80
21335;DHT22;69435;52.670;13.544;2023-10-09T17:15:48;14.50;62.90
21335;DHT22;69435;52.670;13.544;2023-10-09T17:18:38;14.50;63.10
21335;DHT22;69435;52.670;13.544;2023-10-09T17:21:24;14.40;63.00
21335;DHT22;69435;52.670;13.544;2023-10-09T17:24:10;14.50;63.30
21335;DHT22;69435;52.670;13.544;2023-10-09T17:26:56;14.40;63.30
21335;DHT22;69435;52.670;13.544;2023-10-09T17:29:42;14.40;63.20
21335;DHT22;69435;52.670;13.544;2023-10-09T17:32:28;14.40;63.10
21335;DHT22;69435;52.670;13.544;2023-10-09T17:35:14;14.30;63.20
21335;DHT22;69435;52.670;13.544;2023-10-09T17:38:02;14.30;63.20
21335;DHT22;69435;52.670;13.544;2023-10-09T17:40:48;14.30;63.30
21335;DHT22;69435;52.670;13.544;2023-10-09T17:43:37;14.30;63.30
21335;DHT22;69435;52.670;13.544;2023-10-09T17:46:26;14.30;63.40
21335;DHT22;69435;52.670;13.544;2023-10-09T17:49:12;14.30;63.40